sensor_id;sensor_type;location;lat;lon;timestamp;temperature;humidity
44477;DHT22;30180;44.788;10.366;2022-11-28T00:01:35;17.90;68.00
44477;DHT22;30180;44.788;10.366;2022-11-28T00:04:05;17.90;68.00
44477;DHT22;30180;44.788;10.366;2022-11-28T00:06:36;17.90;68.00
44477;DHT22;30180;44.788;10.366;2022-11-28T00:09:07;17.90;68.00
44477;DHT22;30180;44.788;10.366;2022-11-28T00:11:35;17.90;68.00
44477;DHT22;30180;44.788;10.366;2022-11-28T00:14:05;17.90;68.00
44477;DHT22;30180;44.788;10.366;2022-11-28T00:16:33;17.80;67.90
44477;DHT22;30180;44.788;10.366;2022-11-28T00:19:03;17.80;67.90
44477;DHT22;30180;44.788;10.366;2022-11-28T00:21:32;17.90;68.00
44477;DHT22;30180;44.788;10.366;2022-11-28T00:24:00;17.80;67.90
44477;DHT22;30180;44.788;10.366;2022-11-28T00:26:32;17.80;67.90
44477;DHT22;30180;44.788;10.366;2022-11-28T00:29:01;17.80;67.90
44477;DHT22;30180;44.788;10.366;2022-11-28T00:31:32;17.80;67.90
44477;DHT22;30180;44.788;10.366;2022-11-28T00:34:01;17.80;67.90
44477;DHT22;30180;44.788;10.366;2022-11-28T00:36:30;17.80;67.90
44477;DHT22;30180;44.788;10.366;2022-11-28T00:38:58;17.80;67.90
44477;DHT22;30180;44.788;10.366;2022-11-28T00:41:28;17.80;67.90
44477;DHT22;30180;44.788;10.366;2022-11-28T00:43:58;17.80;67.90
44477;DHT22;30180;44.788;10.366;2022-11-28T00:46:27;17.80;67.90
44477;DHT22;30180;44.788;10.366;2022-11-28T00:48:56;17.80;67.90
44477;DHT22;30180;44.788;10.366;2022-11-28T00:51:26;17.80;67.90
44477;DHT22;30180;44.788;10.366;2022-11-28T00:53:56;17.80;67.90
44477;DHT22;30180;44.788;10.366;2022-11-28T00:56:26;17.80;67.90
44477;DHT22;30180;44.788;10.366;2022-11-28T00:58:55;17.70;67.90
44477;DHT22;30180;44.788;10.366;2022-11-28T01:01:26;17.70;67.80
44477;DHT22;30180;44.788;10.366;2022-11-28T01:03:56;17.70;67.80
44477;DHT22;30180;44.788;10.366;2022-11-28T01:06:28;17.70;67.90
44477;DHT22;30180;44.788;10.366;2022-11-28T01:08:58;17.70;67.90
44477;DHT22;30180;44.788;10.366;2022-11-28T01:11:27;17.70;67.90
44477;DHT22;30180;44.788;10.366;2022-11-28T01:13:57;17.70;67.80
44477;DHT22;30180;44.788;10.366;2022-11-28T01:16:28;17.70;67.80
44477;DHT22;30180;44.788;10.366;2022-11-28T01:18:56;17.70;67.90
44477;DHT22;30180;44.788;10.366;2022-11-28T01:21:25;17.70;67.80
44477;DHT22;30180;44.788;10.366;2022-11-28T01:23:53;17.70;67.90
44477;DHT22;30180;44.788;10.366;2022-11-28T01:26:24;17.70;67.90
44477;DHT22;30180;44.788;10.366;2022-11-28T01:28:53;17.70;67.90
44477;DHT22;30180;44.788;10.366;2022-11-28T01:31:22;17.70;67.90
44477;DHT22;30180;44.788;10.366;2022-11-28T01:33:52;17.60;67.80
44477;DHT22;30180;44.788;10.366;2022-11-28T01:36:21;17.60;67.80
44477;DHT22;30180;44.788;10.366;2022-11-28T01:38:50;17.60;67.80
44477;DHT22;30180;44.788;10.366;2022-11-28T01:41:21;17.60;67.80
44477;DHT22;30180;44.788;10.366;2022-11-28T01:44:02;17.60;67.80
44477;DHT22;30180;44.788;10.366;2022-11-28T01:46:31;17.60;67.80
44477;DHT22;30180;44.788;10.366;2022-11-28T01:49:06;17.60;67.90
44477;DHT22;30180;44.788;10.366;2022-11-28T01:51:36;17.60;67.80
44477;DHT22;30180;44.788;10.366;2022-11-28T01:54:05;17.60;67.80
44477;DHT22;30180;44.788;10.366;2022-11-28T01:56:40;17.60;67.90
44477;DHT22;30180;44.788;10.366;2022-11-28T01:59:11;17.60;67.80
44477;DHT22;30180;44.788;10.366;2022-11-28T02:01:40;17.60;67.90
44477;DHT22;30180;44.788;10.366;2022-11-28T02:04:11;17.60;67.90
44477;DHT22;30180;44.788;10.366;2022-11-28T02:06:41;17.60;67.90
44477;DHT22;30180;44.788;10.366;2022-11-28T02:09:11;17.60;67.90
44477;DHT22;30180;44.788;10.366;2022-11-28T02:12:05;17.60;67.90
44477;DHT22;30180;44.788;10.366;2022-11-28T02:14:50;17.60;67.90
44477;DHT22;30180;44.788;10.366;2022-11-28T02:17:30;17.60;67.90
44477;DHT22;30180;44.788;10.366;2022-11-28T02:23:16;17.50;67.80
44477;DHT22;30180;44.788;10.366;2022-11-28T02:34:53;17.50;67.80
44477;DHT22;30180;44.788;10.366;2022-11-28T02:37:29;17.50;67.80
44477;DHT22;30180;44.788;10.366;2022-11-28T02:40:06;17.50;67.80
44477;DHT22;30180;44.788;10.366;2022-11-28T02:42:45;17.50;67.80
44477;DHT22;30180;44.788;10.366;2022-11-28T02:45:23;17.50;67.80
44477;DHT22;30180;44.788;10.366;2022-11-28T02:48:00;17.50;67.80
44477;DHT22;30180;44.788;10.366;2022-11-28T02:50:32;17.50;68.40
44477;DHT22;30180;44.788;10.366;2022-11-28T02:53:06;17.50;67.90
44477;DHT22;30180;44.788;10.366;2022-11-28T02:55:38;17.50;67.80
44477;DHT22;30180;44.788;10.366;2022-11-28T02:58:09;17.50;67.90
44477;DHT22;30180;44.788;10.366;2022-11-28T03:00:39;17.50;67.80
44477;DHT22;30180;44.788;10.366;2022-11-28T03:03:27;17.50;67.80
44477;DHT22;30180;44.788;10.366;2022-11-28T03:06:03;17.50;67.80
44477;DHT22;30180;44.788;10.366;2022-11-28T03:08:46;17.50;67.80
44477;DHT22;30180;44.788;10.366;2022-11-28T03:11:18;17.50;67.80
44477;DHT22;30180;44.788;10.366;2022-11-28T03:13:52;17.50;67.80
44477;DHT22;30180;44.788;10.366;2022-11-28T03:16:27;17.50;67.90
44477;DHT22;30180;44.788;10.366;2022-11-28T03:19:02;17.40;67.80
44477;DHT22;30180;44.788;10.366;2022-11-28T03:21:39;17.40;67.90
44477;DHT22;30180;44.788;10.366;2022-11-28T03:24:13;17.40;67.80
44477;DHT22;30180;44.788;10.366;2022-11-28T03:26:49;17.40;67.80
44477;DHT22;30180;44.788;10.366;2022-11-28T03:29:20;17.40;67.80
44477;DHT22;30180;44.788;10.366;2022-11-28T03:31:52;17.40;67.80
44477;DHT22;30180;44.788;10.366;2022-11-28T03:34:29;17.40;67.80
44477;DHT22;30180;44.788;10.366;2022-11-28T03:37:02;17.40;67.90
44477;DHT22;30180;44.788;10.366;2022-11-28T03:39:34;17.40;67.80
44477;DHT22;30180;44.788;10.366;2022-11-28T03:42:07;17.40;67.80
44477;DHT22;30180;44.788;10.366;2022-11-28T03:44:41;17.40;67.80
44477;DHT22;30180;44.788;10.366;2022-11-28T03:47:12;17.40;67.80
44477;DHT22;30180;44.788;10.366;2022-11-28T03:49:46;17.40;67.80
44477;DHT22;30180;44.788;10.366;2022-11-28T03:52:21;17.40;67.80
44477;DHT22;30180;44.788;10.366;2022-11-28T03:54:54;17.40;67.80
44477;DHT22;30180;44.788;10.366;2022-11-28T03:57:29;17.40;67.80
44477;DHT22;30180;44.788;10.366;2022-11-28T04:00:03;17.40;67.80
44477;DHT22;30180;44.788;10.366;2022-11-28T04:02:36;17.40;67.80
44477;DHT22;30180;44.788;10.366;2022-11-28T04:05:13;17.40;67.80
44477;DHT22;30180;44.788;10.366;2022-11-28T04:07:47;17.40;67.90
44477;DHT22;30180;44.788;10.366;2022-11-28T04:10:20;17.40;67.80
44477;DHT22;30180;44.788;10.366;2022-11-28T04:12:53;17.30;67.80
44477;DHT22;30180;44.788;10.366;2022-11-28T04:15:30;17.40;67.80
44477;DHT22;30180;44.788;10.366;2022-11-28T04:18:09;17.30;67.80
44477;DHT22;30180;44.788;10.366;2022-11-28T04:20:42;17.40;67.90
44477;DHT22;30180;44.788;10.366;2022-11-28T04:23:15;17.40;67.90
44477;DHT22;30180;44.788;10.366;2022-11-28T04:25:50;17.40;67.90
44477;DHT22;30180;44.788;10.366;2022-11-28T04:28:21;17.40;67.90
44477;DHT22;30180;44.788;10.366;2022-11-28T04:30:52;17.40;68.00
44477;DHT22;30180;44.788;10.366;2022-11-28T04:33:23;17.40;68.00
44477;DHT22;30180;44.788;10.366;2022-11-28T04:35:55;17.40;68.00
44477;DHT22;30180;44.788;10.366;2022-11-28T04:38:25;17.40;68.00
44477;DHT22;30180;44.788;10.366;2022-11-28T04:41:00;17.40;68.00
44477;DHT22;30180;44.788;10.366;2022-11-28T04:43:34;17.40;68.00
44477;DHT22;30180;44.788;10.366;2022-11-28T04:46:08;17.50;68.10
44477;DHT22;30180;44.788;10.366;2022-11-28T04:48:37;17.50;68.10
44477;DHT22;30180;44.788;10.366;2022-11-28T04:51:14;17.50;68.10
44477;DHT22;30180;44.788;10.366;2022-11-28T04:53:50;17.50;68.10
44477;DHT22;30180;44.788;10.366;2022-11-28T04:56:22;17.50;68.10
44477;DHT22;30180;44.788;10.366;2022-11-28T04:58:53;17.60;68.20
44477;DHT22;30180;44.788;10.366;2022-11-28T05:01:24;17.60;68.20
44477;DHT22;30180;44.788;10.366;2022-11-28T05:03:54;17.60;68.20
44477;DHT22;30180;44.788;10.366;2022-11-28T05:06:26;17.60;68.20
44477;DHT22;30180;44.788;10.366;2022-11-28T05:08:55;17.60;68.20
44477;DHT22;30180;44.788;10.366;2022-11-28T05:11:23;17.70;68.20
44477;DHT22;30180;44.788;10.366;2022-11-28T05:13:52;17.70;68.20
44477;DHT22;30180;44.788;10.366;2022-11-28T05:16:20;17.70;68.30
44477;DHT22;30180;44.788;10.366;2022-11-28T05:18:48;17.70;68.30
44477;DHT22;30180;44.788;10.366;2022-11-28T05:21:17;17.80;68.40
44477;DHT22;30180;44.788;10.366;2022-11-28T05:23:46;17.80;68.40
44477;DHT22;30180;44.788;10.366;2022-11-28T05:26:16;17.80;69.00
44477;DHT22;30180;44.788;10.366;2022-11-28T05:28:45;17.80;68.40
44477;DHT22;30180;44.788;10.366;2022-11-28T05:31:14;17.90;68.40
44477;DHT22;30180;44.788;10.366;2022-11-28T05:33:42;17.90;68.40
44477;DHT22;30180;44.788;10.366;2022-11-28T05:36:12;17.90;68.40
44477;DHT22;30180;44.788;10.366;2022-11-28T05:38:41;17.90;68.40
44477;DHT22;30180;44.788;10.366;2022-11-28T05:41:18;17.90;68.40
44477;DHT22;30180;44.788;10.366;2022-11-28T05:43:46;18.00;68.40
44477;DHT22;30180;44.788;10.366;2022-11-28T05:46:14;18.00;68.40
44477;DHT22;30180;44.788;10.366;2022-11-28T05:48:43;18.00;68.40
44477;DHT22;30180;44.788;10.366;2022-11-28T05:51:11;18.00;68.40
44477;DHT22;30180;44.788;10.366;2022-11-28T05:53:39;18.00;68.40
44477;DHT22;30180;44.788;10.366;2022-11-28T05:56:09;18.00;68.30
44477;DHT22;30180;44.788;10.366;2022-11-28T05:58:38;18.00;68.30
44477;DHT22;30180;44.788;10.366;2022-11-28T06:01:11;18.00;68.30
44477;DHT22;30180;44.788;10.366;2022-11-28T06:03:40;18.10;68.30
44477;DHT22;30180;44.788;10.366;2022-11-28T06:06:11;18.00;68.20
44477;DHT22;30180;44.788;10.366;2022-11-28T06:08:40;18.10;68.30
44477;DHT22;30180;44.788;10.366;2022-11-28T06:11:08;18.10;68.30
44477;DHT22;30180;44.788;10.366;2022-11-28T06:13:39;18.10;68.30
44477;DHT22;30180;44.788;10.366;2022-11-28T06:16:08;18.10;68.20
44477;DHT22;30180;44.788;10.366;2022-11-28T06:18:37;18.10;68.20
44477;DHT22;30180;44.788;10.366;2022-11-28T06:21:06;18.10;68.20
44477;DHT22;30180;44.788;10.366;2022-11-28T06:23:35;18.10;68.20
44477;DHT22;30180;44.788;10.366;2022-11-28T06:26:04;18.10;68.20
44477;DHT22;30180;44.788;10.366;2022-11-28T06:28:34;18.10;68.20
44477;DHT22;30180;44.788;10.366;2022-11-28T06:31:07;18.10;68.10
44477;DHT22;30180;44.788;10.366;2022-11-28T06:33:36;18.10;68.10
44477;DHT22;30180;44.788;10.366;2022-11-28T06:36:05;18.10;68.70
44477;DHT22;30180;44.788;10.366;2022-11-28T06:38:34;18.10;68.10
44477;DHT22;30180;44.788;10.366;2022-11-28T06:41:05;18.10;68.10
44477;DHT22;30180;44.788;10.366;2022-11-28T06:43:33;18.10;68.10
44477;DHT22;30180;44.788;10.366;2022-11-28T06:46:03;18.10;68.10
44477;DHT22;30180;44.788;10.366;2022-11-28T06:48:31;18.10;68.10
44477;DHT22;30180;44.788;10.366;2022-11-28T06:51:04;18.10;68.10
44477;DHT22;30180;44.788;10.366;2022-11-28T06:53:33;18.10;68.10
44477;DHT22;30180;44.788;10.366;2022-11-28T06:56:05;18.10;68.10
44477;DHT22;30180;44.788;10.366;2022-11-28T06:58:34;18.10;68.10
44477;DHT22;30180;44.788;10.366;2022-11-28T07:01:09;18.10;68.10
44477;DHT22;30180;44.788;10.366;2022-11-28T07:03:38;18.10;68.10
44477;DHT22;30180;44.788;10.366;2022-11-28T07:06:07;18.10;68.10
44477;DHT22;30180;44.788;10.366;2022-11-28T07:08:36;18.10;68.10
44477;DHT22;30180;44.788;10.366;2022-11-28T07:11:10;18.10;68.10
44477;DHT22;30180;44.788;10.366;2022-11-28T07:13:39;18.10;68.70
44477;DHT22;30180;44.788;10.366;2022-11-28T07:16:13;18.10;68.10
44477;DHT22;30180;44.788;10.366;2022-11-28T07:18:41;18.10;68.00
44477;DHT22;30180;44.788;10.366;2022-11-28T07:21:10;18.10;68.00
44477;DHT22;30180;44.788;10.366;2022-11-28T07:23:40;18.10;68.10
44477;DHT22;30180;44.788;10.366;2022-11-28T07:26:10;18.10;68.10
44477;DHT22;30180;44.788;10.366;2022-11-28T07:28:38;18.10;68.10
44477;DHT22;30180;44.788;10.366;2022-11-28T07:31:10;18.10;68.10
44477;DHT22;30180;44.788;10.366;2022-11-28T07:33:41;18.20;68.10
44477;DHT22;30180;44.788;10.366;2022-11-28T07:36:12;18.20;68.10
44477;DHT22;30180;44.788;10.366;2022-11-28T07:38:40;18.20;68.10
44477;DHT22;30180;44.788;10.366;2022-11-28T07:41:11;18.20;68.10
44477;DHT22;30180;44.788;10.366;2022-11-28T07:43:40;18.20;68.10
44477;DHT22;30180;44.788;10.366;2022-11-28T07:46:12;18.20;68.10
44477;DHT22;30180;44.788;10.366;2022-11-28T07:48:41;18.20;68.10
44477;DHT22;30180;44.788;10.366;2022-11-28T07:51:12;18.20;68.00
44477;DHT22;30180;44.788;10.366;2022-11-28T07:53:41;18.20;68.00
44477;DHT22;30180;44.788;10.366;2022-11-28T07:56:11;18.20;68.00
44477;DHT22;30180;44.788;10.366;2022-11-28T07:58:41;18.20;68.00
44477;DHT22;30180;44.788;10.366;2022-11-28T08:01:12;18.20;68.00
44477;DHT22;30180;44.788;10.366;2022-11-28T08:03:41;18.20;68.00
44477;DHT22;30180;44.788;10.366;2022-11-28T08:06:11;18.20;67.90
44477;DHT22;30180;44.788;10.366;2022-11-28T08:08:39;18.20;68.00
44477;DHT22;30180;44.788;10.366;2022-11-28T08:11:08;18.20;68.00
44477;DHT22;30180;44.788;10.366;2022-11-28T08:13:43;18.20;67.90
44477;DHT22;30180;44.788;10.366;2022-11-28T08:16:14;18.20;67.90
44477;DHT22;30180;44.788;10.366;2022-11-28T08:18:43;18.20;67.90
44477;DHT22;30180;44.788;10.366;2022-11-28T08:21:13;18.20;67.90
44477;DHT22;30180;44.788;10.366;2022-11-28T08:23:41;18.20;67.90
44477;DHT22;30180;44.788;10.366;2022-11-28T08:26:12;18.10;67.90
44477;DHT22;30180;44.788;10.366;2022-11-28T08:28:41;18.10;67.90
44477;DHT22;30180;44.788;10.366;2022-11-28T08:31:11;18.10;67.90
44477;DHT22;30180;44.788;10.366;2022-11-28T08:33:41;18.10;67.90
44477;DHT22;30180;44.788;10.366;2022-11-28T08:36:11;18.10;67.80
44477;DHT22;30180;44.788;10.366;2022-11-28T08:38:40;18.10;67.90
44477;DHT22;30180;44.788;10.366;2022-11-28T08:41:29;18.10;67.90
44477;DHT22;30180;44.788;10.366;2022-11-28T08:43:57;18.10;67.80
44477;DHT22;30180;44.788;10.366;2022-11-28T08:46:25;18.10;67.80
44477;DHT22;30180;44.788;10.366;2022-11-28T08:48:54;18.10;67.80
44477;DHT22;30180;44.788;10.366;2022-11-28T08:51:23;18.10;68.00
44477;DHT22;30180;44.788;10.366;2022-11-28T08:53:51;18.10;67.80
44477;DHT22;30180;44.788;10.366;2022-11-28T08:56:25;18.10;67.80
44477;DHT22;30180;44.788;10.366;2022-11-28T08:58:53;18.10;67.90
44477;DHT22;30180;44.788;10.366;2022-11-28T09:01:23;18.00;67.80
44477;DHT22;30180;44.788;10.366;2022-11-28T09:03:54;18.00;67.80
44477;DHT22;30180;44.788;10.366;2022-11-28T09:06:23;18.00;67.80
44477;DHT22;30180;44.788;10.366;2022-11-28T09:08:51;18.00;67.80
44477;DHT22;30180;44.788;10.366;2022-11-28T09:11:21;18.00;67.80
44477;DHT22;30180;44.788;10.366;2022-11-28T09:13:50;18.00;67.80
44477;DHT22;30180;44.788;10.366;2022-11-28T09:16:18;18.00;67.80
44477;DHT22;30180;44.788;10.366;2022-11-28T09:18:46;18.00;67.80
44477;DHT22;30180;44.788;10.366;2022-11-28T09:21:16;18.00;67.90
44477;DHT22;30180;44.788;10.366;2022-11-28T09:23:45;18.00;67.90
44477;DHT22;30180;44.788;10.366;2022-11-28T09:26:15;18.00;67.90
44477;DHT22;30180;44.788;10.366;2022-11-28T09:28:44;18.00;67.80
44477;DHT22;30180;44.788;10.366;2022-11-28T09:31:13;18.00;67.90
44477;DHT22;30180;44.788;10.366;2022-11-28T09:33:43;17.90;67.80
44477;DHT22;30180;44.788;10.366;2022-11-28T09:36:12;18.00;67.90
44477;DHT22;30180;44.788;10.366;2022-11-28T09:38:42;17.90;67.80
44477;DHT22;30180;44.788;10.366;2022-11-28T09:44:13;17.90;67.90
44477;DHT22;30180;44.788;10.366;2022-11-28T09:46:43;17.90;67.90
44477;DHT22;30180;44.788;10.366;2022-11-28T09:49:24;17.90;67.90
44477;DHT22;30180;44.788;10.366;2022-11-28T09:52:03;17.90;67.90
44477;DHT22;30180;44.788;10.366;2022-11-28T09:54:40;17.90;67.90
44477;DHT22;30180;44.788;10.366;2022-11-28T09:57:14;17.90;67.90
44477;DHT22;30180;44.788;10.366;2022-11-28T09:59:45;17.90;67.90
44477;DHT22;30180;44.788;10.366;2022-11-28T10:02:22;17.90;67.90
44477;DHT22;30180;44.788;10.366;2022-11-28T10:05:01;17.90;67.80
44477;DHT22;30180;44.788;10.366;2022-11-28T10:07:42;17.90;67.90
44477;DHT22;30180;44.788;10.366;2022-11-28T10:10:28;17.90;67.90
44477;DHT22;30180;44.788;10.366;2022-11-28T10:13:03;17.90;67.90
44477;DHT22;30180;44.788;10.366;2022-11-28T10:15:43;17.90;67.90
44477;DHT22;30180;44.788;10.366;2022-11-28T10:18:29;17.90;67.90
44477;DHT22;30180;44.788;10.366;2022-11-28T10:21:02;17.90;68.00
44477;DHT22;30180;44.788;10.366;2022-11-28T10:23:36;17.90;68.00
44477;DHT22;30180;44.788;10.366;2022-11-28T10:26:15;17.90;68.00
44477;DHT22;30180;44.788;10.366;2022-11-28T10:28:47;17.90;68.10
44477;DHT22;30180;44.788;10.366;2022-11-28T10:31:20;17.90;68.70
44477;DHT22;30180;44.788;10.366;2022-11-28T10:33:55;17.90;68.10
44477;DHT22;30180;44.788;10.366;2022-11-28T10:36:27;17.90;68.10
44477;DHT22;30180;44.788;10.366;2022-11-28T10:39:00;17.90;68.10
44477;DHT22;30180;44.788;10.366;2022-11-28T10:41:42;17.90;68.20
44477;DHT22;30180;44.788;10.366;2022-11-28T10:44:17;17.90;68.20
44477;DHT22;30180;44.788;10.366;2022-11-28T10:46:54;18.00;68.30
44477;DHT22;30180;44.788;10.366;2022-11-28T10:49:35;18.00;68.30
44477;DHT22;30180;44.788;10.366;2022-11-28T10:52:13;18.00;68.30
44477;DHT22;30180;44.788;10.366;2022-11-28T10:55:07;18.00;68.30
44477;DHT22;30180;44.788;10.366;2022-11-28T10:57:47;18.10;68.40
44477;DHT22;30180;44.788;10.366;2022-11-28T11:00:18;18.00;68.40
44477;DHT22;30180;44.788;10.366;2022-11-28T11:02:48;18.10;68.40
44477;DHT22;30180;44.788;10.366;2022-11-28T11:05:18;18.10;68.50
44477;DHT22;30180;44.788;10.366;2022-11-28T11:07:49;18.10;68.50
44477;DHT22;30180;44.788;10.366;2022-11-28T11:10:21;18.10;68.50
44477;DHT22;30180;44.788;10.366;2022-11-28T11:12:52;18.20;68.60
44477;DHT22;30180;44.788;10.366;2022-11-28T11:15:23;18.20;68.50
44477;DHT22;30180;44.788;10.366;2022-11-28T11:17:56;18.20;68.50
44477;DHT22;30180;44.788;10.366;2022-11-28T11:20:30;18.20;68.50
44477;DHT22;30180;44.788;10.366;2022-11-28T11:23:01;18.20;68.50
44477;DHT22;30180;44.788;10.366;2022-11-28T11:25:31;18.30;68.60
44477;DHT22;30180;44.788;10.366;2022-11-28T11:28:02;18.30;68.60
44477;DHT22;30180;44.788;10.366;2022-11-28T11:30:33;18.30;68.60
44477;DHT22;30180;44.788;10.366;2022-11-28T11:33:06;18.30;68.50
44477;DHT22;30180;44.788;10.366;2022-11-28T11:35:42;18.30;68.50
44477;DHT22;30180;44.788;10.366;2022-11-28T11:38:16;18.30;68.50
44477;DHT22;30180;44.788;10.366;2022-11-28T11:40:45;18.30;68.50
44477;DHT22;30180;44.788;10.366;2022-11-28T11:43:36;18.30;68.50
44477;DHT22;30180;44.788;10.366;2022-11-28T11:46:06;18.30;68.50
44477;DHT22;30180;44.788;10.366;2022-11-28T11:48:36;18.30;68.50
44477;DHT22;30180;44.788;10.366;2022-11-28T11:51:05;18.30;68.50
44477;DHT22;30180;44.788;10.366;2022-11-28T11:53:34;18.30;68.50
44477;DHT22;30180;44.788;10.366;2022-11-28T11:56:03;18.30;68.40
44477;DHT22;30180;44.788;10.366;2022-11-28T11:58:38;18.30;68.50
44477;DHT22;30180;44.788;10.366;2022-11-28T12:01:09;18.30;68.50
44477;DHT22;30180;44.788;10.366;2022-11-28T12:03:40;18.30;68.40
44477;DHT22;30180;44.788;10.366;2022-11-28T12:06:13;18.30;68.40
44477;DHT22;30180;44.788;10.366;2022-11-28T12:08:48;18.30;68.40
44477;DHT22;30180;44.788;10.366;2022-11-28T12:11:20;18.30;68.40
44477;DHT22;30180;44.788;10.366;2022-11-28T12:13:52;18.30;68.40
44477;DHT22;30180;44.788;10.366;2022-11-28T12:16:32;18.30;68.40
44477;DHT22;30180;44.788;10.366;2022-11-28T12:19:13;18.30;68.40
44477;DHT22;30180;44.788;10.366;2022-11-28T12:21:52;18.30;68.40
44477;DHT22;30180;44.788;10.366;2022-11-28T12:24:29;18.30;68.40
44477;DHT22;30180;44.788;10.366;2022-11-28T12:27:03;18.30;68.40
44477;DHT22;30180;44.788;10.366;2022-11-28T12:29:43;18.30;68.40
44477;DHT22;30180;44.788;10.366;2022-11-28T12:32:27;18.30;68.40
44477;DHT22;30180;44.788;10.366;2022-11-28T12:35:10;18.30;68.40
44477;DHT22;30180;44.788;10.366;2022-11-28T12:37:49;18.30;68.40
44477;DHT22;30180;44.788;10.366;2022-11-28T12:40:49;18.30;68.40
44477;DHT22;30180;44.788;10.366;2022-11-28T12:43:30;18.30;68.40
44477;DHT22;30180;44.788;10.366;2022-11-28T12:46:11;18.30;68.40
44477;DHT22;30180;44.788;10.366;2022-11-28T12:48:54;18.30;68.40
44477;DHT22;30180;44.788;10.366;2022-11-28T12:51:33;18.30;68.40
44477;DHT22;30180;44.788;10.366;2022-11-28T12:56:59;18.20;68.40
44477;DHT22;30180;44.788;10.366;2022-11-28T12:59:37;18.20;68.30
44477;DHT22;30180;44.788;10.366;2022-11-28T13:02:26;18.20;68.30
44477;DHT22;30180;44.788;10.366;2022-11-28T13:05:19;18.20;68.30
44477;DHT22;30180;44.788;10.366;2022-11-28T13:08:02;18.20;68.40
44477;DHT22;30180;44.788;10.366;2022-11-28T13:10:41;18.20;68.30
44477;DHT22;30180;44.788;10.366;2022-11-28T13:13:17;18.20;68.40
44477;DHT22;30180;44.788;10.366;2022-11-28T13:15:56;18.20;68.30
44477;DHT22;30180;44.788;10.366;2022-11-28T13:18:37;18.20;68.30
44477;DHT22;30180;44.788;10.366;2022-11-28T13:21:18;18.20;68.30
44477;DHT22;30180;44.788;10.366;2022-11-28T13:23:54;18.20;68.30
44477;DHT22;30180;44.788;10.366;2022-11-28T13:26:40;18.20;68.30
44477;DHT22;30180;44.788;10.366;2022-11-28T13:29:20;18.20;68.30
44477;DHT22;30180;44.788;10.366;2022-11-28T13:31:56;18.10;68.20
44477;DHT22;30180;44.788;10.366;2022-11-28T13:34:29;18.10;68.20
44477;DHT22;30180;44.788;10.366;2022-11-28T13:37:06;18.10;68.30
44477;DHT22;30180;44.788;10.366;2022-11-28T13:40:03;18.10;68.30
44477;DHT22;30180;44.788;10.366;2022-11-28T13:42:39;18.10;68.30
44477;DHT22;30180;44.788;10.366;2022-11-28T13:45:30;18.10;68.30
44477;DHT22;30180;44.788;10.366;2022-11-28T13:51:28;18.10;68.40
44477;DHT22;30180;44.788;10.366;2022-11-28T13:57:28;18.10;68.30
44477;DHT22;30180;44.788;10.366;2022-11-28T14:00:01;18.10;68.40
44477;DHT22;30180;44.788;10.366;2022-11-28T14:02:38;18.10;68.40
44477;DHT22;30180;44.788;10.366;2022-11-28T14:05:23;18.10;68.30
44477;DHT22;30180;44.788;10.366;2022-11-28T14:07:55;18.00;68.30
44477;DHT22;30180;44.788;10.366;2022-11-28T14:10:36;18.00;68.30
44477;DHT22;30180;44.788;10.366;2022-11-28T14:13:16;18.00;68.30
44477;DHT22;30180;44.788;10.366;2022-11-28T14:15:58;18.00;68.20
44477;DHT22;30180;44.788;10.366;2022-11-28T14:18:55;18.00;68.30
44477;DHT22;30180;44.788;10.366;2022-11-28T14:21:36;18.00;68.30
44477;DHT22;30180;44.788;10.366;2022-11-28T14:24:15;18.00;68.30
44477;DHT22;30180;44.788;10.366;2022-11-28T14:26:44;18.00;68.30
44477;DHT22;30180;44.788;10.366;2022-11-28T14:29:22;17.90;68.20
44477;DHT22;30180;44.788;10.366;2022-11-28T14:31:52;17.90;68.20
44477;DHT22;30180;44.788;10.366;2022-11-28T14:34:44;17.90;68.30
44477;DHT22;30180;44.788;10.366;2022-11-28T14:40:02;17.90;68.30
44477;DHT22;30180;44.788;10.366;2022-11-28T14:42:34;17.90;68.30
44477;DHT22;30180;44.788;10.366;2022-11-28T14:45:41;17.90;68.20
44477;DHT22;30180;44.788;10.366;2022-11-28T14:48:20;17.90;68.30
44477;DHT22;30180;44.788;10.366;2022-11-28T14:50:55;17.90;68.30
44477;DHT22;30180;44.788;10.366;2022-11-28T14:53:42;17.80;68.20
44477;DHT22;30180;44.788;10.366;2022-11-28T14:56:23;17.90;68.30
44477;DHT22;30180;44.788;10.366;2022-11-28T14:58:56;17.80;68.30
44477;DHT22;30180;44.788;10.366;2022-11-28T15:01:35;17.80;68.30
44477;DHT22;30180;44.788;10.366;2022-11-28T15:04:25;17.80;68.30
44477;DHT22;30180;44.788;10.366;2022-11-28T15:06:57;17.80;68.30
44477;DHT22;30180;44.788;10.366;2022-11-28T15:09:33;17.80;68.30
44477;DHT22;30180;44.788;10.366;2022-11-28T15:12:13;17.80;68.30
44477;DHT22;30180;44.788;10.366;2022-11-28T15:14:44;17.80;68.30
44477;DHT22;30180;44.788;10.366;2022-11-28T15:17:22;17.80;68.30
44477;DHT22;30180;44.788;10.366;2022-11-28T15:19:52;17.80;68.30
44477;DHT22;30180;44.788;10.366;2022-11-28T15:22:29;17.80;68.40
44477;DHT22;30180;44.788;10.366;2022-11-28T15:24:58;17.80;68.40
44477;DHT22;30180;44.788;10.366;2022-11-28T15:27:28;17.80;68.40
44477;DHT22;30180;44.788;10.366;2022-11-28T15:29:57;17.80;68.40
44477;DHT22;30180;44.788;10.366;2022-11-28T15:32:27;17.80;68.40
44477;DHT22;30180;44.788;10.366;2022-11-28T15:34:59;17.80;68.40
44477;DHT22;30180;44.788;10.366;2022-11-28T15:37:29;17.80;68.50
44477;DHT22;30180;44.788;10.366;2022-11-28T15:39:58;17.80;68.50
44477;DHT22;30180;44.788;10.366;2022-11-28T15:42:32;17.80;68.50
44477;DHT22;30180;44.788;10.366;2022-11-28T15:45:06;17.90;68.60
44477;DHT22;30180;44.788;10.366;2022-11-28T15:47:35;17.90;68.60
44477;DHT22;30180;44.788;10.366;2022-11-28T15:50:13;17.90;68.60
44477;DHT22;30180;44.788;10.366;2022-11-28T15:52:52;17.90;68.60
44477;DHT22;30180;44.788;10.366;2022-11-28T15:55:20;17.90;68.60
44477;DHT22;30180;44.788;10.366;2022-11-28T15:57:50;17.90;68.60
44477;DHT22;30180;44.788;10.366;2022-11-28T16:00:19;17.90;68.60
44477;DHT22;30180;44.788;10.366;2022-11-28T16:02:47;17.90;68.60
44477;DHT22;30180;44.788;10.366;2022-11-28T16:05:17;17.90;68.70
44477;DHT22;30180;44.788;10.366;2022-11-28T16:07:49;18.00;68.70
44477;DHT22;30180;44.788;10.366;2022-11-28T16:10:22;18.00;68.70
44477;DHT22;30180;44.788;10.366;2022-11-28T16:12:58;18.00;68.70
44477;DHT22;30180;44.788;10.366;2022-11-28T16:15:28;18.00;68.80
44477;DHT22;30180;44.788;10.366;2022-11-28T16:17:57;18.00;68.80
44477;DHT22;30180;44.788;10.366;2022-11-28T16:20:27;18.00;68.70